createdAt,value
2018-07-23T00:03:27.397Z,12.33
2018-07-23T00:08:22.180Z,10.93
2018-07-23T00:13:16.855Z,12.90
2018-07-23T00:18:11.526Z,11.77
2018-07-23T00:23:06.235Z,10.83
2018-07-23T00:28:00.711Z,11.90
2018-07-23T00:32:55.325Z,12.30
2018-07-23T00:37:49.947Z,10.90
2018-07-23T00:42:44.547Z,11.07
2018-07-23T00:47:39.354Z,10.50
2018-07-23T00:52:34.064Z,11.70
2018-07-23T00:57:28.690Z,11.43
2018-07-23T01:02:23.359Z,11.83
2018-07-23T01:07:18.263Z,11.57
2018-07-23T01:12:13.176Z,10.43
2018-07-23T01:17:07.796Z,9.77
2018-07-23T01:22:02.463Z,10.60
2018-07-23T01:26:57.067Z,12.33
2018-07-23T01:31:51.723Z,9.90
2018-07-23T01:36:46.321Z,10.47
2018-07-23T01:41:40.951Z,10.60
2018-07-23T01:46:35.536Z,10.57
2018-07-23T01:51:30.144Z,11.47
2018-07-23T01:56:24.730Z,12.10
2018-07-23T02:01:19.378Z,12.33
2018-07-23T02:06:14.032Z,12.50
2018-07-23T02:11:08.896Z,12.57
2018-07-23T02:16:03.503Z,14.87
2018-07-23T02:20:58.160Z,14.83
2018-07-23T02:25:52.773Z,11.63
2018-07-23T02:30:47.394Z,11.93
2018-07-23T02:35:42.068Z,13.30
2018-07-23T02:40:36.675Z,11.87
2018-07-23T02:45:31.317Z,13.03
2018-07-23T02:50:25.964Z,13.27
2018-07-23T02:55:20.674Z,12.63
2018-07-23T03:00:15.277Z,11.70
2018-07-23T03:05:09.935Z,14.43
2018-07-23T03:10:05.075Z,12.43
2018-07-23T03:14:59.651Z,13.03
2018-07-23T03:19:54.224Z,12.17
2018-07-23T03:24:48.770Z,12.57
2018-07-23T03:29:43.401Z,12.47
2018-07-23T03:34:38.009Z,27.07
2018-07-23T03:39:32.583Z,14.37
2018-07-23T03:44:27.415Z,12.40
2018-07-23T03:49:22.244Z,13.67
2018-07-23T03:54:17.241Z,15.03
2018-07-23T03:59:12.733Z,12.63
2018-07-23T04:04:07.725Z,13.27
2018-07-23T04:09:02.365Z,16.03
2018-07-23T04:13:56.971Z,13.37
2018-07-23T04:18:51.620Z,12.80
2018-07-23T04:23:46.293Z,13.47
2018-07-23T04:28:40.822Z,14.90
2018-07-23T04:33:35.415Z,11.97
2018-07-23T04:38:30.146Z,12.83
2018-07-23T04:43:24.834Z,13.17
2018-07-23T04:48:19.498Z,14.80
2018-07-23T04:53:14.105Z,15.23
2018-07-23T04:58:08.739Z,15.80
2018-07-23T05:03:03.375Z,14.23
2018-07-23T05:07:57.982Z,13.70
2018-07-23T05:12:52.603Z,15.00
2018-07-23T05:17:47.227Z,13.23
2018-07-23T05:22:41.835Z,13.47
2018-07-23T05:27:36.467Z,12.57
2018-07-23T05:32:31.095Z,15.57
2018-07-23T05:37:25.752Z,16.37
2018-07-23T05:42:20.403Z,15.40
2018-07-23T05:47:15.003Z,14.93
2018-07-23T05:52:09.650Z,15.57
2018-07-23T05:57:04.368Z,14.87
2018-07-23T06:01:59.077Z,16.60
2018-07-23T06:06:53.796Z,17.20
2018-07-23T06:11:49.371Z,16.20
2018-07-23T06:16:43.939Z,16.60
2018-07-23T06:21:38.586Z,16.30
2018-07-23T06:26:33.271Z,15.10
2018-07-23T06:31:27.978Z,15.47
2018-07-23T06:36:22.613Z,15.30
2018-07-23T06:41:17.271Z,15.33
2018-07-23T06:46:11.937Z,14.67
2018-07-23T06:51:06.587Z,15.33
2018-07-23T06:56:01.303Z,14.00
2018-07-23T07:00:56.935Z,14.10
2018-07-23T07:05:51.563Z,15.60
2018-07-23T07:10:46.220Z,16.90
2018-07-23T07:15:40.914Z,13.70
2018-07-23T07:20:35.551Z,11.40
2018-07-23T07:25:30.300Z,9.87
2018-07-23T07:30:24.826Z,11.03
2018-07-23T07:35:19.439Z,11.77
2018-07-23T07:40:14.028Z,11.50
2018-07-23T07:45:08.827Z,10.83
2018-07-23T07:50:03.472Z,10.93
2018-07-23T07:54:58.100Z,11.03
2018-07-23T07:59:52.752Z,11.97
2018-07-23T08:04:47.377Z,11.47
2018-07-23T08:09:42.028Z,12.03
2018-07-23T08:14:36.715Z,11.87
2018-07-23T08:19:31.411Z,12.50
2018-07-23T08:24:26.040Z,14.13
2018-07-23T08:29:20.640Z,15.70
2018-07-23T08:34:15.234Z,16.07
2018-07-23T08:39:11.417Z,14.70
2018-07-23T08:44:06.160Z,13.10
2018-07-23T08:49:00.716Z,14.85
2018-07-23T08:53:55.331Z,12.37
2018-07-23T08:58:49.944Z,12.23
2018-07-23T09:03:44.527Z,13.38
2018-07-23T09:08:39.209Z,13.70
2018-07-23T09:13:33.734Z,13.15
2018-07-23T09:18:28.338Z,13.90
2018-07-23T09:23:22.930Z,12.25
2018-07-23T09:28:18.180Z,12.45
2018-07-23T09:33:12.732Z,13.30
2018-07-23T09:38:07.435Z,12.68
2018-07-23T09:43:02.231Z,12.55
2018-07-23T09:47:56.867Z,14.38
2018-07-23T09:52:51.476Z,12.53
2018-07-23T09:57:46.112Z,16.05
2018-07-23T10:02:40.751Z,13.03
2018-07-23T10:07:35.389Z,12.60
2018-07-23T10:12:30.059Z,10.95
2018-07-23T10:17:24.678Z,12.28
2018-07-23T10:22:19.367Z,10.18
2018-07-23T10:27:14.015Z,11.33
2018-07-23T10:32:08.682Z,11.68
2018-07-23T10:37:03.540Z,9.65
2018-07-23T10:41:58.146Z,11.15
2018-07-23T10:46:52.823Z,9.45
2018-07-23T10:51:47.484Z,8.93
2018-07-23T10:56:42.098Z,7.28
2018-07-23T11:01:36.749Z,7.10
2018-07-23T11:06:31.516Z,8.05
2018-07-23T11:11:26.112Z,7.37
2018-07-23T11:16:20.775Z,7.87
2018-07-23T11:21:15.384Z,6.60
2018-07-23T11:26:10.042Z,6.87
2018-07-23T11:31:04.785Z,6.10
2018-07-23T11:35:59.392Z,7.47
2018-07-23T11:40:54.037Z,6.53
2018-07-23T11:45:48.755Z,6.83
2018-07-23T11:50:43.379Z,5.80
2018-07-23T11:55:38.083Z,5.90
2018-07-23T12:00:32.548Z,5.87
2018-07-23T12:05:27.125Z,6.30
2018-07-23T12:10:21.756Z,10.72
2018-07-23T12:15:16.413Z,6.03
2018-07-23T12:20:10.982Z,6.00
2018-07-23T12:25:05.649Z,5.70
2018-07-23T12:30:00.216Z,5.25
2018-07-23T12:34:54.796Z,5.40
2018-07-23T12:39:49.466Z,5.37
2018-07-23T12:44:43.969Z,5.55
2018-07-23T12:49:38.648Z,5.40
2018-07-23T12:54:33.294Z,5.12
2018-07-23T12:59:27.891Z,5.37
2018-07-23T13:04:22.596Z,4.92
2018-07-23T13:09:17.274Z,5.12
2018-07-23T13:14:11.861Z,5.55
2018-07-23T13:19:06.658Z,5.40
2018-07-23T13:24:01.324Z,5.97
2018-07-23T13:28:55.940Z,6.03
2018-07-23T13:33:50.548Z,6.30
2018-07-23T13:38:45.185Z,8.15
2018-07-23T13:43:39.943Z,8.68
2018-07-23T13:48:34.575Z,7.08
2018-07-23T13:53:29.257Z,7.70
2018-07-23T13:58:23.831Z,8.60
2018-07-23T14:03:18.463Z,6.97
2018-07-23T14:08:13.065Z,7.47
2018-07-23T14:13:07.788Z,7.70
2018-07-23T14:18:02.360Z,8.63
2018-07-23T14:22:56.992Z,8.13
2018-07-23T14:27:51.567Z,8.10
2018-07-23T14:32:46.164Z,8.48
2018-07-23T14:37:40.858Z,8.43
2018-07-23T14:42:35.444Z,7.40
2018-07-23T14:47:30.319Z,8.43
2018-07-23T14:52:24.909Z,8.23
2018-07-23T14:57:19.519Z,8.65
2018-07-23T15:02:14.163Z,8.03
2018-07-23T15:07:09.207Z,8.08
2018-07-23T15:12:03.813Z,8.48
2018-07-23T15:16:58.445Z,8.15
2018-07-23T15:21:53.084Z,8.20
2018-07-23T15:26:47.657Z,8.80
2018-07-23T15:31:42.276Z,8.63
2018-07-23T15:36:36.862Z,8.05
2018-07-23T15:41:31.518Z,8.48
2018-07-23T15:46:26.171Z,8.55
2018-07-23T15:51:20.828Z,9.23
2018-07-23T15:56:15.753Z,8.93
2018-07-23T16:01:10.554Z,7.75
2018-07-23T16:06:05.599Z,8.75
2018-07-23T16:11:00.206Z,7.78
2018-07-23T16:15:54.863Z,8.48
2018-07-23T16:20:49.146Z,8.23
2018-07-23T16:25:43.772Z,8.73
2018-07-23T16:30:38.394Z,7.70
2018-07-23T16:35:36.051Z,8.80
2018-07-23T16:40:30.327Z,7.67
2018-07-23T16:45:24.972Z,7.22
2018-07-23T16:50:20.928Z,7.33
2018-07-23T16:55:15.563Z,7.30
2018-07-23T17:00:10.157Z,7.53
2018-07-23T17:05:04.914Z,7.22
2018-07-23T17:09:59.517Z,8.95
2018-07-23T17:14:54.209Z,8.65
2018-07-23T17:19:48.887Z,8.60
2018-07-23T17:24:43.547Z,8.63
2018-07-23T17:29:38.158Z,8.88
2018-07-23T17:34:32.763Z,8.83
2018-07-23T17:39:27.326Z,8.63
2018-07-23T17:44:21.903Z,9.50
2018-07-23T17:49:16.538Z,9.10
2018-07-23T17:54:11.151Z,8.95
2018-07-23T17:59:05.750Z,9.58
2018-07-23T18:04:00.464Z,9.60
2018-07-23T18:08:55.427Z,9.88
2018-07-23T18:13:49.699Z,9.70
2018-07-23T18:18:44.412Z,9.73
2018-07-23T18:23:39.058Z,9.80
2018-07-23T18:28:33.756Z,9.73
2018-07-23T18:33:28.348Z,11.40
2018-07-23T18:38:23.013Z,9.50
2018-07-23T18:43:17.591Z,10.20
2018-07-23T18:50:30.048Z,10.23
2018-07-23T18:55:24.712Z,10.10
2018-07-23T19:00:19.380Z,9.55
2018-07-23T19:05:14.074Z,9.00
2018-07-23T19:10:10.473Z,12.20
2018-07-23T19:15:06.270Z,11.30
2018-07-23T19:20:00.914Z,10.55
2018-07-23T19:24:55.597Z,10.25
2018-07-23T19:29:50.396Z,10.58
2018-07-23T19:34:45.034Z,11.28
2018-07-23T19:39:39.632Z,16.52
2018-07-23T19:44:34.293Z,14.25
2018-07-23T19:49:28.934Z,13.58
2018-07-23T19:54:23.530Z,13.50
2018-07-23T19:59:18.198Z,15.30
2018-07-23T20:04:12.922Z,15.00
2018-07-23T20:09:10.454Z,14.70
2018-07-23T20:14:05.142Z,16.30
2018-07-23T20:18:59.917Z,13.30
2018-07-23T20:23:54.570Z,13.55
2018-07-23T20:28:49.224Z,12.27
2018-07-23T20:33:43.643Z,12.65
2018-07-23T20:38:38.620Z,12.10
2018-07-23T20:43:33.736Z,12.40
2018-07-23T20:48:28.411Z,12.90
2018-07-23T20:53:23.162Z,13.17
2018-07-23T20:58:18.571Z,13.03
2018-07-23T21:03:13.190Z,14.07
2018-07-23T21:08:07.884Z,16.17
2018-07-23T21:13:02.788Z,13.67
2018-07-23T21:17:58.203Z,13.07
2018-07-23T21:22:52.864Z,13.13
2018-07-23T21:27:47.640Z,12.80
2018-07-23T21:32:42.231Z,14.03
2018-07-23T21:37:36.859Z,14.50
2018-07-23T21:42:31.538Z,13.37
2018-07-23T21:47:26.197Z,15.03
2018-07-23T21:52:20.928Z,15.90
2018-07-23T21:57:15.587Z,14.00
2018-07-23T22:02:10.359Z,14.57
2018-07-23T22:07:05.080Z,15.47
2018-07-23T22:11:59.765Z,14.27
2018-07-23T22:16:54.415Z,16.00
2018-07-23T22:21:49.145Z,15.53
2018-07-23T22:26:43.987Z,16.17
2018-07-23T22:31:38.681Z,14.47
2018-07-23T22:36:33.342Z,13.43
2018-07-23T22:41:27.669Z,13.30
2018-07-23T22:46:22.972Z,15.20
2018-07-23T22:51:17.633Z,14.30
2018-07-23T22:56:12.271Z,13.57
2018-07-23T23:01:07.156Z,14.90
2018-07-23T23:06:01.816Z,13.77
2018-07-23T23:10:56.502Z,14.23
2018-07-23T23:15:51.103Z,15.80
2018-07-23T23:20:45.734Z,15.40
2018-07-23T23:25:40.697Z,15.40
2018-07-23T23:30:35.285Z,16.47
2018-07-23T23:35:29.951Z,15.80
2018-07-23T23:40:24.664Z,14.17
2018-07-23T23:45:19.329Z,15.87
2018-07-23T23:50:13.938Z,17.30
2018-07-23T23:55:08.536Z,17.30
